createdAt,value
2022-12-24T00:00:39.720Z,5.34
2022-12-24T00:05:41.700Z,5.31
2022-12-24T00:10:44.276Z,5.30
2022-12-24T00:15:46.132Z,5.27
2022-12-24T00:20:48.924Z,5.31
2022-12-24T00:25:50.640Z,5.37
2022-12-24T00:30:52.607Z,5.44
2022-12-24T00:35:54.296Z,5.50
2022-12-24T00:41:01.880Z,5.59
2022-12-24T00:46:03.695Z,5.66
2022-12-24T00:51:05.441Z,5.75
2022-12-24T00:56:08.038Z,5.84
2022-12-24T01:01:10.201Z,5.92
2022-12-24T01:06:18.099Z,5.99
2022-12-24T01:11:19.940Z,6.05
2022-12-24T01:16:21.771Z,6.07
2022-12-24T01:21:23.738Z,6.09
2022-12-24T01:26:25.455Z,6.10
2022-12-24T01:31:27.147Z,6.11
2022-12-24T01:36:28.974Z,6.10
2022-12-24T01:41:51.072Z,6.10
2022-12-24T01:47:14.428Z,6.09
2022-12-24T01:52:23.647Z,6.07
2022-12-24T01:57:30.026Z,6.07
2022-12-24T02:02:33.449Z,6.08
2022-12-24T02:07:36.415Z,6.10
2022-12-24T02:12:39.122Z,6.13
2022-12-24T02:17:56.867Z,6.16
2022-12-24T02:23:08.131Z,6.19
2022-12-24T02:28:38.330Z,6.15
2022-12-24T02:34:19.521Z,6.15
2022-12-24T02:39:27.374Z,6.17
2022-12-24T02:44:31.815Z,6.13
2022-12-24T02:49:33.516Z,6.08
2022-12-24T02:54:35.371Z,6.01
2022-12-24T02:59:58.982Z,5.93
2022-12-24T03:05:12.558Z,5.83
2022-12-24T03:10:31.336Z,5.71
2022-12-24T03:15:34.394Z,5.60
2022-12-24T03:20:44.250Z,5.50
2022-12-24T03:25:46.587Z,5.45
2022-12-24T03:30:48.826Z,5.45
2022-12-24T03:35:50.497Z,5.44
2022-12-24T03:40:52.511Z,5.43
2022-12-24T03:45:54.305Z,5.44
2022-12-24T03:50:56.153Z,5.50
2022-12-24T03:55:58.316Z,5.54
2022-12-24T04:00:59.974Z,5.53
2022-12-24T04:06:09.977Z,5.56
2022-12-24T04:11:14.186Z,5.59
2022-12-24T04:16:17.517Z,5.60
2022-12-24T04:21:19.540Z,5.58
2022-12-24T04:26:21.228Z,5.54
2022-12-24T04:31:23.357Z,5.46
2022-12-24T04:36:25.161Z,5.39
2022-12-24T04:41:26.913Z,5.38
2022-12-24T04:46:32.666Z,5.49
2022-12-24T04:51:34.395Z,5.57
2022-12-24T04:56:37.037Z,5.59
2022-12-24T05:01:38.832Z,5.65
2022-12-24T05:06:40.663Z,5.70
2022-12-24T05:11:42.341Z,5.77
2022-12-24T05:16:44.296Z,5.84
2022-12-24T05:22:06.153Z,5.91
2022-12-24T05:27:08.039Z,5.97
2022-12-24T05:32:09.681Z,6.01
2022-12-24T05:37:11.366Z,6.02
2022-12-24T05:42:13.073Z,6.10
2022-12-24T05:47:14.887Z,6.19
2022-12-24T05:52:16.676Z,6.28
2022-12-24T05:57:18.329Z,6.33
2022-12-24T06:02:19.998Z,6.35
2022-12-24T06:07:21.673Z,6.37
2022-12-24T06:12:23.842Z,6.38
2022-12-24T06:17:25.536Z,6.39
2022-12-24T06:22:27.442Z,6.39
2022-12-24T06:27:29.134Z,6.42
2022-12-24T06:32:30.990Z,6.45
2022-12-24T06:37:32.723Z,6.49
2022-12-24T06:42:34.346Z,6.50
2022-12-24T06:47:36.317Z,6.52
2022-12-24T06:52:38.588Z,6.56
2022-12-24T06:57:40.290Z,6.60
2022-12-24T07:02:43.419Z,6.64
2022-12-24T07:07:45.534Z,6.66
2022-12-24T07:12:48.138Z,6.70
2022-12-24T07:17:49.836Z,6.74
2022-12-24T07:22:51.602Z,6.79
2022-12-24T07:27:53.323Z,6.85
2022-12-24T07:32:55.002Z,6.90
2022-12-24T07:37:56.778Z,6.95
2022-12-24T07:42:58.491Z,6.99
2022-12-24T07:48:00.194Z,7.02
2022-12-24T07:53:01.848Z,7.01
2022-12-24T07:58:03.518Z,7.02
2022-12-24T08:03:05.661Z,7.10
2022-12-24T08:08:07.693Z,7.28
2022-12-24T08:13:09.604Z,7.55
2022-12-24T08:18:11.897Z,7.88
2022-12-24T08:23:14.316Z,8.04
2022-12-24T08:28:19.318Z,8.02
2022-12-24T08:33:22.123Z,8.04
2022-12-24T08:38:24.366Z,8.20
2022-12-24T08:43:26.885Z,8.26
2022-12-24T08:48:28.567Z,8.29
2022-12-24T08:53:30.218Z,8.37
2022-12-24T08:58:32.298Z,8.39
2022-12-24T09:03:34.042Z,8.44
2022-12-24T09:08:36.623Z,8.57
2022-12-24T09:13:39.331Z,8.65
2022-12-24T09:18:41.761Z,8.71
2022-12-24T09:23:46.844Z,8.78
2022-12-24T09:28:49.075Z,8.84
2022-12-24T09:33:51.457Z,8.80
2022-12-24T09:38:53.378Z,8.80
2022-12-24T09:44:08.077Z,8.77
2022-12-24T09:49:22.328Z,8.74
2022-12-24T09:54:31.946Z,8.72
2022-12-24T09:59:43.980Z,8.81
2022-12-24T10:04:47.198Z,8.89
2022-12-24T10:10:18.033Z,9.05
2022-12-24T10:15:31.977Z,9.22
2022-12-24T10:21:16.553Z,9.29
2022-12-24T10:26:25.858Z,9.35
2022-12-24T10:31:32.134Z,9.32
2022-12-24T10:36:33.807Z,9.23
2022-12-24T10:41:36.781Z,8.99
2022-12-24T10:46:39.331Z,8.74
2022-12-24T10:51:55.713Z,8.67
2022-12-24T10:57:02.350Z,8.69
2022-12-24T11:02:04.330Z,8.70
2022-12-24T11:07:16.884Z,8.67
2022-12-24T11:12:23.556Z,8.69
2022-12-24T11:17:25.485Z,8.78
2022-12-24T11:22:30.746Z,8.88
2022-12-24T11:27:41.708Z,8.97
2022-12-24T11:32:46.050Z,9.00
2022-12-24T11:38:00.293Z,8.98
2022-12-24T11:43:03.859Z,8.94
2022-12-24T11:48:25.535Z,8.95
2022-12-24T11:53:36.273Z,9.04
2022-12-24T11:58:54.966Z,9.12
2022-12-24T12:04:10.869Z,9.09
2022-12-24T12:09:18.188Z,9.06
2022-12-24T12:14:30.302Z,9.06
2022-12-24T12:19:42.517Z,9.03
2022-12-24T12:24:50.947Z,8.97
2022-12-24T12:30:00.200Z,8.91
2022-12-24T12:35:15.761Z,8.87
2022-12-24T12:40:18.814Z,8.81
2022-12-24T12:45:43.290Z,8.79
2022-12-24T12:51:08.016Z,8.85
2022-12-24T12:56:30.319Z,8.87
2022-12-24T13:02:17.492Z,8.86
2022-12-24T13:07:37.502Z,8.90
2022-12-24T13:13:07.724Z,8.98
2022-12-24T13:18:34.349Z,9.03
2022-12-24T13:23:36.141Z,9.08
2022-12-24T13:28:38.725Z,9.07
2022-12-24T13:33:40.452Z,9.07
2022-12-24T13:38:52.528Z,9.17
2022-12-24T13:44:06.374Z,9.21
2022-12-24T13:49:17.754Z,9.21
2022-12-24T13:54:25.681Z,9.14
2022-12-24T13:59:38.983Z,9.09
2022-12-24T14:04:42.449Z,9.05
2022-12-24T14:09:50.220Z,9.01
2022-12-24T14:14:51.959Z,8.92
2022-12-24T14:20:02.464Z,8.83
2022-12-24T14:25:12.406Z,8.72
2022-12-24T14:30:19.638Z,8.63
2022-12-24T14:35:26.474Z,8.55
2022-12-24T14:40:30.949Z,8.48
2022-12-24T14:45:41.941Z,8.41
2022-12-24T14:50:59.761Z,8.36
2022-12-24T14:56:14.505Z,8.33
2022-12-24T15:01:24.401Z,8.29
2022-12-24T15:06:27.242Z,8.21
2022-12-24T15:11:29.383Z,8.06
2022-12-24T15:16:35.319Z,7.93
2022-12-24T15:21:44.005Z,7.83
2022-12-24T15:26:45.741Z,7.77
2022-12-24T15:31:53.446Z,7.62
2022-12-24T15:37:04.749Z,7.50
2022-12-24T15:42:15.077Z,7.32
2022-12-24T15:47:21.032Z,7.19
2022-12-24T15:52:24.977Z,7.20
2022-12-24T15:57:31.743Z,7.25
2022-12-24T16:02:40.699Z,7.25
2022-12-24T16:08:05.362Z,7.25
2022-12-24T16:13:23.702Z,7.27
2022-12-24T16:18:56.198Z,7.27
2022-12-24T16:24:06.347Z,7.25
2022-12-24T16:29:10.115Z,7.20
2022-12-24T16:34:17.228Z,7.13
2022-12-24T16:39:23.303Z,7.04
2022-12-24T16:44:25.003Z,6.98
2022-12-24T16:49:27.345Z,6.96
2022-12-24T16:54:30.122Z,6.93
2022-12-24T16:59:32.695Z,6.87
2022-12-24T17:04:35.162Z,6.75
2022-12-24T17:09:36.953Z,6.69
2022-12-24T17:14:39.761Z,6.57
2022-12-24T17:19:41.487Z,6.49
2022-12-24T17:24:44.056Z,6.41
2022-12-24T17:29:46.100Z,6.31
2022-12-24T17:34:47.783Z,6.24
2022-12-24T17:39:49.457Z,6.19
2022-12-24T17:44:51.191Z,6.22
2022-12-24T17:49:53.041Z,6.25
2022-12-24T17:54:54.968Z,6.26
2022-12-24T17:59:57.443Z,6.24
2022-12-24T18:04:59.320Z,6.17
2022-12-24T18:10:01.073Z,6.08
2022-12-24T18:15:02.803Z,6.05
2022-12-24T18:20:05.364Z,6.04
2022-12-24T18:25:07.667Z,6.11
2022-12-24T18:30:10.420Z,6.21
2022-12-24T18:35:12.247Z,6.29
2022-12-24T18:40:14.109Z,6.34
2022-12-24T18:45:15.951Z,6.37
2022-12-24T18:50:17.630Z,6.38
2022-12-24T18:55:19.301Z,6.38
2022-12-24T19:00:21.018Z,6.37
2022-12-24T19:05:22.824Z,6.38
2022-12-24T19:10:24.619Z,6.40
2022-12-24T19:15:30.806Z,6.39
2022-12-24T19:20:39.684Z,6.38
2022-12-24T19:25:41.396Z,6.37
2022-12-24T19:30:43.316Z,6.36
2022-12-24T19:35:45.081Z,6.37
2022-12-24T19:40:46.822Z,6.39
2022-12-24T19:45:48.566Z,6.39
2022-12-24T19:50:50.865Z,6.31
2022-12-24T19:55:52.730Z,6.17
2022-12-24T20:00:54.616Z,6.01
2022-12-24T20:05:56.376Z,5.83
2022-12-24T20:10:58.081Z,5.71
2022-12-24T20:16:05.775Z,5.56
2022-12-24T20:21:08.850Z,5.42
2022-12-24T20:26:13.632Z,5.34
2022-12-24T20:31:21.773Z,5.27
2022-12-24T20:36:25.103Z,5.25
2022-12-24T20:41:29.019Z,5.28
2022-12-24T20:46:31.181Z,5.30
2022-12-24T20:51:33.035Z,5.37
2022-12-24T20:56:34.682Z,5.47
2022-12-24T21:01:36.452Z,5.56
2022-12-24T21:06:39.574Z,5.64
2022-12-24T21:11:50.180Z,5.74
2022-12-24T21:16:54.227Z,5.82
2022-12-24T21:21:55.995Z,5.90
2022-12-24T21:26:57.783Z,5.95
2022-12-24T21:31:59.491Z,6.00
2022-12-24T21:37:01.238Z,6.07
2022-12-24T21:42:03.255Z,6.09
2022-12-24T21:47:04.973Z,6.15
2022-12-24T21:52:06.672Z,6.22
2022-12-24T21:57:28.007Z,6.27
2022-12-24T22:02:29.862Z,6.28
2022-12-24T22:07:50.597Z,6.28
2022-12-24T22:13:00.261Z,6.25
2022-12-24T22:18:02.320Z,6.22
2022-12-24T22:23:04.278Z,6.16
2022-12-24T22:28:06.410Z,6.14
2022-12-24T22:33:09.733Z,6.12
2022-12-24T22:38:11.624Z,6.09
2022-12-24T22:43:13.277Z,6.07
2022-12-24T22:48:19.532Z,6.06
2022-12-24T22:53:21.470Z,6.06
2022-12-24T22:58:23.850Z,6.06
2022-12-24T23:03:26.237Z,6.04
2022-12-24T23:08:29.046Z,6.00
2022-12-24T23:13:49.534Z,5.95
2022-12-24T23:18:51.299Z,5.89
2022-12-24T23:23:53.461Z,5.81
2022-12-24T23:28:56.108Z,5.74
2022-12-24T23:33:57.891Z,5.72
2022-12-24T23:38:59.747Z,5.68
2022-12-24T23:44:01.555Z,5.60
2022-12-24T23:49:03.381Z,5.42
2022-12-24T23:54:05.074Z,5.17
2022-12-24T23:59:06.810Z,4.93
